createdAt,value
2023-05-05T00:02:01.629Z,78.32
2023-05-05T00:04:48.564Z,78.41
2023-05-05T00:07:35.325Z,78.80
2023-05-05T00:10:22.148Z,78.53
2023-05-05T00:13:09.142Z,78.32
2023-05-05T00:15:56.108Z,78.52
2023-05-05T00:18:44.580Z,78.17
2023-05-05T00:21:31.381Z,78.62
2023-05-05T00:24:18.175Z,78.16
2023-05-05T00:27:04.971Z,78.64
2023-05-05T00:29:52.098Z,78.05
2023-05-05T00:32:39.266Z,78.43
2023-05-05T00:35:26.144Z,78.57
2023-05-05T00:38:12.942Z,78.46
2023-05-05T00:40:59.796Z,78.44
2023-05-05T00:43:46.817Z,78.67
2023-05-05T00:46:35.232Z,78.51
2023-05-05T00:49:22.153Z,78.43
2023-05-05T00:52:10.338Z,78.61
2023-05-05T00:54:57.936Z,78.62
2023-05-05T00:57:45.423Z,78.60
2023-05-05T01:00:33.153Z,78.75
2023-05-05T01:03:20.116Z,78.81
2023-05-05T01:06:39.177Z,78.81
2023-05-05T01:10:15.117Z,78.75
2023-05-05T01:13:14.638Z,78.80
2023-05-05T01:16:09.564Z,78.62
2023-05-05T01:19:26.250Z,79.00
2023-05-05T01:22:17.009Z,78.65
2023-05-05T01:25:12.451Z,79.65
2023-05-05T01:28:19.146Z,79.62
2023-05-05T01:31:21.091Z,79.67
2023-05-05T01:34:12.576Z,79.37
2023-05-05T01:37:09.954Z,80.07
2023-05-05T01:40:02.125Z,80.15
2023-05-05T01:42:50.727Z,79.94
2023-05-05T01:45:39.868Z,80.59
2023-05-05T01:48:26.784Z,80.47
2023-05-05T01:51:16.708Z,80.40
2023-05-05T01:54:06.624Z,81.03
2023-05-05T01:56:57.094Z,80.77
2023-05-05T01:59:43.945Z,81.27
2023-05-05T02:02:32.687Z,80.80
2023-05-05T02:05:19.837Z,81.65
2023-05-05T02:08:08.914Z,81.34
2023-05-05T02:10:56.173Z,81.22
2023-05-05T02:13:44.264Z,81.18
2023-05-05T02:16:37.879Z,81.54
2023-05-05T02:19:30.111Z,81.99
2023-05-05T02:22:16.987Z,81.61
2023-05-05T02:25:04.461Z,82.34
2023-05-05T02:27:56.696Z,81.96
2023-05-05T02:30:48.182Z,82.31
2023-05-05T02:33:36.546Z,81.86
2023-05-05T02:36:27.129Z,82.10
2023-05-05T02:39:31.977Z,83.04
2023-05-05T02:42:23.530Z,82.28
2023-05-05T02:45:15.921Z,82.78
2023-05-05T02:48:06.233Z,82.22
2023-05-05T02:50:57.600Z,83.20
2023-05-05T02:53:50.474Z,82.00
2023-05-05T02:56:49.272Z,83.00
2023-05-05T02:59:46.850Z,83.25
2023-05-05T03:03:05.362Z,83.50
2023-05-05T03:05:58.796Z,83.98
2023-05-05T03:08:51.867Z,83.65
2023-05-05T03:11:56.822Z,83.75
2023-05-05T03:14:45.745Z,83.73
2023-05-05T03:17:36.444Z,83.97
2023-05-05T03:20:24.077Z,83.99
2023-05-05T03:23:11.607Z,84.06
2023-05-05T03:25:58.432Z,83.87
2023-05-05T03:28:58.650Z,84.80
2023-05-05T03:31:49.376Z,84.12
2023-05-05T03:34:37.376Z,84.37
2023-05-05T03:37:25.967Z,84.61
2023-05-05T03:40:13.527Z,84.32
2023-05-05T03:43:01.454Z,84.49
2023-05-05T03:45:48.386Z,84.41
2023-05-05T03:48:35.258Z,83.87
2023-05-05T03:51:23.705Z,83.93
2023-05-05T03:54:11.276Z,84.02
2023-05-05T03:56:58.132Z,84.05
2023-05-05T03:59:45.913Z,84.48
2023-05-05T04:02:32.977Z,84.12
2023-05-05T04:05:20.286Z,83.97
2023-05-05T04:08:07.319Z,84.47
2023-05-05T04:10:54.153Z,84.35
2023-05-05T04:13:41.157Z,84.19
2023-05-05T04:16:28.028Z,84.16
2023-05-05T04:19:15.985Z,84.59
2023-05-05T04:22:02.938Z,84.35
2023-05-05T04:24:50.527Z,84.33
2023-05-05T04:27:37.978Z,84.58
2023-05-05T04:30:25.151Z,83.88
2023-05-05T04:33:12.380Z,84.06
2023-05-05T04:35:59.198Z,83.84
2023-05-05T04:38:46.020Z,83.79
2023-05-05T04:41:33.043Z,84.15
2023-05-05T04:44:19.891Z,83.78
2023-05-05T04:47:06.806Z,84.55
2023-05-05T04:49:56.657Z,83.70
2023-05-05T04:52:43.502Z,84.27
2023-05-05T04:55:30.425Z,84.00
2023-05-05T04:58:17.666Z,85.13
2023-05-05T05:01:05.273Z,84.62
2023-05-05T05:03:52.220Z,84.93
2023-05-05T05:06:39.141Z,85.52
2023-05-05T05:09:25.995Z,84.92
2023-05-05T05:12:13.479Z,85.03
2023-05-05T05:15:00.380Z,85.26
2023-05-05T05:17:47.371Z,85.59
2023-05-05T05:20:35.070Z,85.17
2023-05-05T05:23:22.025Z,85.51
2023-05-05T05:26:09.106Z,86.15
2023-05-05T05:28:56.168Z,86.29
2023-05-05T05:31:43.699Z,85.64
2023-05-05T05:34:30.586Z,86.03
2023-05-05T05:37:18.013Z,86.27
2023-05-05T05:40:05.850Z,85.96
2023-05-05T05:42:54.373Z,85.91
2023-05-05T05:45:41.338Z,86.24
2023-05-05T05:48:28.756Z,86.01
2023-05-05T05:51:16.906Z,85.94
2023-05-05T05:54:04.083Z,86.08
2023-05-05T05:56:51.076Z,85.37
2023-05-05T05:59:37.945Z,85.51
2023-05-05T06:02:25.272Z,84.64
2023-05-05T06:05:12.218Z,85.01
2023-05-05T06:07:59.944Z,84.65
2023-05-05T06:10:48.656Z,84.12
2023-05-05T06:13:38.563Z,84.43
2023-05-05T06:16:26.527Z,83.68
2023-05-05T06:19:13.549Z,83.65
2023-05-05T06:22:00.430Z,83.67
2023-05-05T06:24:47.230Z,83.68
2023-05-05T06:27:34.230Z,83.41
2023-05-05T06:30:21.162Z,83.02
2023-05-05T06:33:08.035Z,82.99
2023-05-05T06:35:54.875Z,83.00
2023-05-05T06:38:41.655Z,82.83
2023-05-05T06:41:28.565Z,82.35
2023-05-05T06:44:16.553Z,81.92
2023-05-05T06:47:03.725Z,81.84
2023-05-05T06:49:50.592Z,81.44
2023-05-05T06:52:37.396Z,81.46
2023-05-05T06:55:24.534Z,81.24
2023-05-05T06:58:11.387Z,81.31
2023-05-05T07:00:58.219Z,81.14
2023-05-05T07:03:45.271Z,80.23
2023-05-05T07:06:32.287Z,79.61
2023-05-05T07:09:19.104Z,79.14
2023-05-05T07:12:06.126Z,78.68
2023-05-05T07:14:52.929Z,77.82
2023-05-05T07:17:40.096Z,77.60
2023-05-05T07:20:27.071Z,77.36
2023-05-05T07:23:13.970Z,77.29
2023-05-05T07:26:00.907Z,77.06
2023-05-05T07:28:47.753Z,76.15
2023-05-05T07:31:34.578Z,77.02
2023-05-05T07:34:21.429Z,76.94
2023-05-05T07:37:08.318Z,76.60
2023-05-05T07:39:55.099Z,75.30
2023-05-05T07:42:41.980Z,74.91
2023-05-05T07:45:28.811Z,75.25
2023-05-05T07:48:15.760Z,74.87
2023-05-05T07:51:02.571Z,74.33
2023-05-05T07:53:49.463Z,73.31
2023-05-05T07:56:36.345Z,72.96
2023-05-05T07:59:23.232Z,71.58
2023-05-05T08:02:10.982Z,71.71
2023-05-05T08:04:57.837Z,71.63
2023-05-05T08:07:44.597Z,71.50
2023-05-05T08:10:31.511Z,71.31
2023-05-05T08:13:18.325Z,71.09
2023-05-05T08:16:05.709Z,70.40
2023-05-05T08:18:52.540Z,70.32
2023-05-05T08:21:39.329Z,70.04
2023-05-05T08:24:26.109Z,68.69
2023-05-05T08:27:12.958Z,68.22
2023-05-05T08:29:59.733Z,67.41
2023-05-05T08:32:46.621Z,67.52
2023-05-05T08:35:33.410Z,66.42
2023-05-05T08:38:20.293Z,65.91
2023-05-05T08:41:12.857Z,65.71
2023-05-05T08:43:59.763Z,66.46
2023-05-05T08:46:47.102Z,65.30
2023-05-05T08:49:43.833Z,65.31
2023-05-05T08:52:38.338Z,64.50
2023-05-05T08:55:26.261Z,65.46
2023-05-05T08:58:14.427Z,65.30
2023-05-05T09:01:01.458Z,65.32
2023-05-05T09:03:48.429Z,65.13
2023-05-05T09:06:35.483Z,65.33
2023-05-05T09:09:22.387Z,67.46
2023-05-05T09:12:09.246Z,68.70
2023-05-05T09:14:58.500Z,69.16
2023-05-05T09:17:46.886Z,70.26
2023-05-05T09:20:38.296Z,71.17
2023-05-05T09:23:25.085Z,73.26
2023-05-05T09:26:11.973Z,82.10
2023-05-05T09:28:59.000Z,86.64
2023-05-05T09:32:00.469Z,93.58
2023-05-05T09:34:57.866Z,96.95
2023-05-05T09:37:45.270Z,95.14
2023-05-05T09:40:45.054Z,100.00
2023-05-05T09:43:49.500Z,100.00
2023-05-05T09:46:36.414Z,100.00
2023-05-05T09:49:23.356Z,100.00
2023-05-05T09:52:16.595Z,100.00
2023-05-05T09:55:03.764Z,100.00
2023-05-05T09:57:50.639Z,100.00
2023-05-05T10:00:38.385Z,100.00
2023-05-05T10:03:25.698Z,100.00
2023-05-05T10:06:12.503Z,100.00
2023-05-05T10:09:02.371Z,100.00
2023-05-05T10:11:49.630Z,100.00
2023-05-05T10:14:36.644Z,100.00
2023-05-05T10:17:23.685Z,100.00
2023-05-05T10:20:13.298Z,100.00
2023-05-05T10:23:04.230Z,100.00
2023-05-05T10:25:58.989Z,100.00
2023-05-05T10:28:51.294Z,100.00
2023-05-05T10:31:53.918Z,100.00
2023-05-05T10:34:53.064Z,100.00
2023-05-05T10:37:41.190Z,100.00
2023-05-05T10:40:28.700Z,100.00
2023-05-05T10:43:15.569Z,100.00
2023-05-05T10:46:02.882Z,100.00
2023-05-05T10:49:01.497Z,100.00
2023-05-05T10:52:06.379Z,100.00
2023-05-05T10:55:20.713Z,100.00
2023-05-05T10:58:07.518Z,100.00
2023-05-05T11:00:54.505Z,100.00
2023-05-05T11:03:41.412Z,100.00
2023-05-05T11:06:28.268Z,100.00
2023-05-05T11:09:28.245Z,100.00
2023-05-05T11:12:15.150Z,100.00
2023-05-05T11:15:27.351Z,100.00
2023-05-05T11:18:43.590Z,100.00
2023-05-05T11:21:30.406Z,100.00
2023-05-05T11:24:29.195Z,100.00
2023-05-05T11:27:16.014Z,100.00
2023-05-05T11:30:10.628Z,100.00
2023-05-05T11:33:25.602Z,100.00
2023-05-05T11:36:20.383Z,100.00
2023-05-05T11:39:24.061Z,100.00
2023-05-05T11:42:16.990Z,100.00
2023-05-05T11:45:20.005Z,100.00
2023-05-05T11:48:26.172Z,100.00
2023-05-05T11:51:17.475Z,100.00
2023-05-05T11:54:04.580Z,100.00
2023-05-05T11:56:59.174Z,100.00
2023-05-05T11:59:53.662Z,100.00
2023-05-05T12:02:40.600Z,100.00
2023-05-05T12:05:27.473Z,100.00
2023-05-05T12:08:14.491Z,100.00
2023-05-05T12:11:06.973Z,100.00
2023-05-05T12:14:10.142Z,100.00
2023-05-05T12:17:07.525Z,100.00
2023-05-05T12:19:55.142Z,100.00
2023-05-05T12:22:42.034Z,100.00
2023-05-05T12:25:35.873Z,100.00
2023-05-05T12:28:22.654Z,100.00
2023-05-05T12:31:09.471Z,100.00
2023-05-05T12:33:56.434Z,100.00
2023-05-05T12:36:43.780Z,100.00
2023-05-05T12:39:36.934Z,100.00
2023-05-05T12:42:23.864Z,100.00
2023-05-05T12:45:16.800Z,100.00
2023-05-05T12:48:21.384Z,100.00
2023-05-05T12:51:11.402Z,100.00
2023-05-05T12:54:09.361Z,100.00
2023-05-05T12:56:56.505Z,100.00
2023-05-05T12:59:43.359Z,100.00
2023-05-05T13:02:36.066Z,100.00
2023-05-05T13:05:33.133Z,100.00
2023-05-05T13:08:20.175Z,100.00
2023-05-05T13:11:06.951Z,100.00
2023-05-05T13:13:53.678Z,100.00
2023-05-05T13:16:40.564Z,100.00
2023-05-05T13:19:27.386Z,100.00
2023-05-05T13:22:14.243Z,100.00
2023-05-05T13:25:01.121Z,100.00
2023-05-05T13:27:47.923Z,100.00
2023-05-05T13:30:34.710Z,100.00
2023-05-05T13:33:21.504Z,100.00
2023-05-05T13:36:08.572Z,100.00
2023-05-05T13:38:55.744Z,100.00
2023-05-05T13:41:42.606Z,100.00
2023-05-05T13:44:29.393Z,100.00
2023-05-05T13:47:16.256Z,100.00
2023-05-05T13:50:03.191Z,100.00
2023-05-05T13:52:49.986Z,100.00
2023-05-05T13:55:36.806Z,100.00
2023-05-05T13:58:23.651Z,100.00
2023-05-05T14:01:10.622Z,100.00
2023-05-05T14:03:57.997Z,100.00
2023-05-05T14:06:44.978Z,100.00
2023-05-05T14:09:31.818Z,100.00
2023-05-05T14:12:18.636Z,100.00
2023-05-05T14:15:06.306Z,100.00
2023-05-05T14:17:53.327Z,100.00
2023-05-05T14:20:40.110Z,100.00
2023-05-05T14:23:26.906Z,100.00
2023-05-05T14:26:13.717Z,100.00
2023-05-05T14:29:00.522Z,100.00
2023-05-05T14:31:47.435Z,100.00
2023-05-05T14:34:34.316Z,100.00
2023-05-05T14:37:21.087Z,100.00
2023-05-05T14:40:08.539Z,100.00
2023-05-05T14:42:55.321Z,100.00
2023-05-05T14:45:42.188Z,100.00
2023-05-05T14:48:29.057Z,100.00
2023-05-05T14:51:15.886Z,100.00
2023-05-05T14:54:02.710Z,100.00
2023-05-05T14:56:50.030Z,100.00
2023-05-05T14:59:36.798Z,100.00
2023-05-05T15:02:23.741Z,100.00
2023-05-05T15:05:10.812Z,100.00
2023-05-05T15:07:57.834Z,100.00
2023-05-05T15:10:45.531Z,100.00
2023-05-05T15:13:32.395Z,100.00
2023-05-05T15:16:19.246Z,100.00
2023-05-05T15:19:06.165Z,100.00
2023-05-05T15:21:52.975Z,100.00
2023-05-05T15:24:39.820Z,100.00
2023-05-05T15:27:26.676Z,100.00
2023-05-05T15:30:14.194Z,100.00
2023-05-05T15:33:01.038Z,100.00
2023-05-05T15:35:47.876Z,100.00
2023-05-05T15:38:41.566Z,100.00
2023-05-05T15:41:28.390Z,100.00
2023-05-05T15:44:15.193Z,100.00
2023-05-05T15:47:01.994Z,100.00
2023-05-05T15:49:48.819Z,100.00
2023-05-05T15:52:35.617Z,100.00
2023-05-05T15:55:22.659Z,100.00
2023-05-05T15:58:09.460Z,100.00
2023-05-05T16:00:56.258Z,100.00
2023-05-05T16:03:43.301Z,100.00
2023-05-05T16:06:30.156Z,100.00
2023-05-05T16:09:17.035Z,100.00
2023-05-05T16:12:04.621Z,100.00
2023-05-05T16:14:51.430Z,100.00
2023-05-05T16:17:38.303Z,100.00
2023-05-05T16:20:25.132Z,100.00
2023-05-05T16:23:12.051Z,100.00
2023-05-05T16:25:58.874Z,100.00
2023-05-05T16:28:45.747Z,100.00
2023-05-05T16:31:32.782Z,100.00
2023-05-05T16:34:19.589Z,100.00
2023-05-05T16:37:06.635Z,100.00
2023-05-05T16:39:53.461Z,100.00
2023-05-05T16:42:40.766Z,100.00
2023-05-05T16:45:28.676Z,100.00
2023-05-05T16:48:15.479Z,100.00
2023-05-05T16:51:03.296Z,100.00
2023-05-05T16:53:50.246Z,100.00
2023-05-05T16:56:37.052Z,100.00
2023-05-05T16:59:23.956Z,100.00
2023-05-05T17:02:10.738Z,100.00
2023-05-05T17:04:57.789Z,100.00
2023-05-05T17:07:44.696Z,100.00
2023-05-05T17:10:31.479Z,100.00
2023-05-05T17:13:18.406Z,100.00
2023-05-05T17:16:05.364Z,100.00
2023-05-05T17:18:53.711Z,100.00
2023-05-05T17:21:40.483Z,100.00
2023-05-05T17:24:27.308Z,100.00
2023-05-05T17:27:14.177Z,100.00
2023-05-05T17:30:00.965Z,100.00
2023-05-05T17:32:48.192Z,100.00
2023-05-05T17:35:35.000Z,100.00
2023-05-05T17:38:21.856Z,100.00
2023-05-05T17:41:08.697Z,100.00
2023-05-05T17:43:55.499Z,100.00
2023-05-05T17:46:42.358Z,100.00
2023-05-05T17:49:29.340Z,100.00
2023-05-05T17:52:16.141Z,100.00
2023-05-05T17:55:03.850Z,100.00
2023-05-05T17:57:50.742Z,100.00
2023-05-05T18:00:37.585Z,100.00
2023-05-05T18:03:24.626Z,100.00
2023-05-05T18:06:11.685Z,100.00
2023-05-05T18:08:58.486Z,100.00
2023-05-05T18:11:45.314Z,100.00
2023-05-05T18:14:11.846Z,100.00
2023-05-05T18:16:38.320Z,100.00
2023-05-05T18:19:04.868Z,100.00
2023-05-05T18:21:31.323Z,100.00
2023-05-05T18:24:04.814Z,100.00
2023-05-05T18:26:47.599Z,100.00
2023-05-05T18:29:14.201Z,100.00
2023-05-05T18:31:40.798Z,100.00
2023-05-05T18:34:07.297Z,100.00
2023-05-05T18:36:33.776Z,100.00
2023-05-05T18:39:00.236Z,100.00
2023-05-05T18:41:26.727Z,100.00
2023-05-05T18:43:53.197Z,100.00
2023-05-05T18:46:19.759Z,100.00
2023-05-05T18:48:46.409Z,100.00
2023-05-05T18:51:12.919Z,100.00
2023-05-05T18:53:39.374Z,100.00
2023-05-05T18:56:06.229Z,100.00
2023-05-05T18:58:32.698Z,100.00
2023-05-05T19:00:59.219Z,100.00
2023-05-05T19:03:25.798Z,100.00
2023-05-05T19:05:52.334Z,100.00
2023-05-05T19:08:18.850Z,100.00
2023-05-05T19:10:45.586Z,100.00
2023-05-05T19:13:12.041Z,100.00
2023-05-05T19:15:38.676Z,100.00
2023-05-05T19:18:05.634Z,100.00
2023-05-05T19:20:32.349Z,100.00
2023-05-05T19:22:58.853Z,100.00
2023-05-05T19:25:25.312Z,100.00
2023-05-05T19:27:51.807Z,100.00
2023-05-05T19:30:18.293Z,100.00
2023-05-05T19:32:44.842Z,100.00
2023-05-05T19:35:11.676Z,100.00
2023-05-05T19:37:38.439Z,100.00
2023-05-05T19:40:05.709Z,100.00
2023-05-05T19:42:32.437Z,100.00
2023-05-05T19:44:58.904Z,100.00
2023-05-05T19:47:25.366Z,100.00
2023-05-05T19:49:51.859Z,100.00
2023-05-05T19:52:18.339Z,100.00
2023-05-05T19:54:44.867Z,100.00
2023-05-05T19:57:11.382Z,100.00
2023-05-05T19:59:37.827Z,100.00
2023-05-05T20:02:04.334Z,100.00
2023-05-05T20:04:30.803Z,100.00
2023-05-05T20:06:57.512Z,100.00
2023-05-05T20:09:23.951Z,100.00
2023-05-05T20:11:50.437Z,100.00
2023-05-05T20:14:16.906Z,100.00
2023-05-05T20:16:43.382Z,100.00
2023-05-05T20:19:09.888Z,100.00
2023-05-05T20:21:39.337Z,100.00
2023-05-05T20:24:06.467Z,100.00
2023-05-05T20:26:33.046Z,100.00
2023-05-05T20:28:59.498Z,100.00
2023-05-05T20:31:26.021Z,100.00
2023-05-05T20:33:52.523Z,100.00
2023-05-05T20:36:19.058Z,100.00
2023-05-05T20:38:45.494Z,100.00
2023-05-05T20:41:11.939Z,100.00
2023-05-05T20:43:38.842Z,100.00
2023-05-05T20:46:05.336Z,100.00
2023-05-05T20:48:31.783Z,100.00
2023-05-05T20:50:58.677Z,100.00
2023-05-05T20:53:25.209Z,100.00
2023-05-05T20:55:51.702Z,100.00
2023-05-05T20:58:18.141Z,100.00
2023-05-05T21:00:44.648Z,100.00
2023-05-05T21:03:11.160Z,100.00
2023-05-05T21:05:39.328Z,100.00
2023-05-05T21:08:05.814Z,100.00
2023-05-05T21:10:32.295Z,100.00
2023-05-05T21:12:59.651Z,100.00
2023-05-05T21:15:26.197Z,100.00
2023-05-05T21:17:52.835Z,100.00
2023-05-05T21:20:19.697Z,100.00
2023-05-05T21:22:46.337Z,100.00
2023-05-05T21:25:19.179Z,100.00
2023-05-05T21:27:47.357Z,100.00
2023-05-05T21:30:14.579Z,100.00
2023-05-05T21:32:41.619Z,100.00
2023-05-05T21:35:08.481Z,100.00
2023-05-05T21:37:37.032Z,100.00
2023-05-05T21:40:03.805Z,100.00
2023-05-05T21:42:30.309Z,100.00
2023-05-05T21:44:56.768Z,100.00
2023-05-05T21:47:23.386Z,100.00
2023-05-05T21:49:50.014Z,100.00
2023-05-05T21:52:17.156Z,100.00
2023-05-05T21:54:43.812Z,100.00
2023-05-05T21:57:10.327Z,100.00
2023-05-05T21:59:36.825Z,100.00
2023-05-05T22:02:03.517Z,100.00
2023-05-05T22:04:30.034Z,100.00
2023-05-05T22:06:56.577Z,100.00
2023-05-05T22:09:23.080Z,100.00
2023-05-05T22:11:50.459Z,100.00
2023-05-05T22:14:17.021Z,100.00
2023-05-05T22:16:43.656Z,100.00
2023-05-05T22:19:10.312Z,100.00
2023-05-05T22:21:36.760Z,100.00
2023-05-05T22:24:03.555Z,100.00
2023-05-05T22:26:30.008Z,100.00
2023-05-05T22:28:56.453Z,100.00
2023-05-05T22:31:23.038Z,100.00
2023-05-05T22:33:49.528Z,100.00
2023-05-05T22:36:16.025Z,100.00
2023-05-05T22:38:42.450Z,100.00
2023-05-05T22:41:08.947Z,100.00
2023-05-05T22:43:35.441Z,100.00
2023-05-05T22:46:01.906Z,100.00
2023-05-05T22:48:28.392Z,100.00
2023-05-05T22:50:54.884Z,100.00
2023-05-05T22:53:21.353Z,100.00
2023-05-05T22:55:47.858Z,100.00
2023-05-05T22:58:14.296Z,100.00
2023-05-05T23:00:40.779Z,100.00
2023-05-05T23:03:07.441Z,100.00
2023-05-05T23:05:33.932Z,100.00
2023-05-05T23:08:00.382Z,100.00
2023-05-05T23:10:28.481Z,100.00
2023-05-05T23:12:54.979Z,100.00
2023-05-05T23:15:21.512Z,100.00
2023-05-05T23:17:48.089Z,100.00
2023-05-05T23:20:14.674Z,100.00
2023-05-05T23:22:41.421Z,100.00
2023-05-05T23:25:08.486Z,100.00
2023-05-05T23:27:35.180Z,100.00
2023-05-05T23:30:01.686Z,100.00
2023-05-05T23:32:28.167Z,100.00
2023-05-05T23:34:54.646Z,100.00
2023-05-05T23:37:21.095Z,100.00
2023-05-05T23:39:47.586Z,100.00
2023-05-05T23:42:14.038Z,100.00
2023-05-05T23:44:40.494Z,100.00
2023-05-05T23:47:07.015Z,100.00
2023-05-05T23:49:33.515Z,100.00
2023-05-05T23:52:00.013Z,100.00
2023-05-05T23:54:26.624Z,100.00
2023-05-05T23:56:53.072Z,100.00
2023-05-05T23:59:19.551Z,100.00
